sensor_id;sensor_type;location;lat;lon;timestamp;P1;durP1;ratioP1;P2;durP2;ratioP2
80295;SDS011;74188;42.148;24.762;2024-03-02T00:00:18;30.15;;;16.98;;
80295;SDS011;74188;42.148;24.762;2024-03-02T00:02:46;32.75;;;16.95;;
80295;SDS011;74188;42.148;24.762;2024-03-02T00:05:14;32.53;;;16.30;;
80295;SDS011;74188;42.148;24.762;2024-03-02T00:10:09;31.00;;;16.98;;
80295;SDS011;74188;42.148;24.762;2024-03-02T00:12:37;32.95;;;17.35;;
80295;SDS011;74188;42.148;24.762;2024-03-02T00:15:06;35.22;;;17.80;;
80295;SDS011;74188;42.148;24.762;2024-03-02T00:17:44;31.30;;;16.33;;
80295;SDS011;74188;42.148;24.762;2024-03-02T00:20:10;31.92;;;17.02;;
80295;SDS011;74188;42.148;24.762;2024-03-02T00:22:43;31.15;;;17.38;;
80295;SDS011;74188;42.148;24.762;2024-03-02T00:25:08;37.28;;;17.13;;
80295;SDS011;74188;42.148;24.762;2024-03-02T00:27:35;31.70;;;16.95;;
80295;SDS011;74188;42.148;24.762;2024-03-02T00:30:01;32.97;;;17.10;;
80295;SDS011;74188;42.148;24.762;2024-03-02T00:32:51;32.90;;;17.45;;
80295;SDS011;74188;42.148;24.762;2024-03-02T00:35:22;35.72;;;17.48;;
80295;SDS011;74188;42.148;24.762;2024-03-02T00:37:48;34.50;;;17.92;;
80295;SDS011;74188;42.148;24.762;2024-03-02T00:40:14;36.20;;;18.17;;
80295;SDS011;74188;42.148;24.762;2024-03-02T00:42:41;32.17;;;17.60;;
80295;SDS011;74188;42.148;24.762;2024-03-02T00:45:07;36.97;;;17.58;;
80295;SDS011;74188;42.148;24.762;2024-03-02T00:47:37;35.40;;;17.77;;
80295;SDS011;74188;42.148;24.762;2024-03-02T00:50:05;34.60;;;17.83;;
80295;SDS011;74188;42.148;24.762;2024-03-02T00:52:32;34.63;;;17.23;;
80295;SDS011;74188;42.148;24.762;2024-03-02T00:54:58;32.35;;;17.48;;
80295;SDS011;74188;42.148;24.762;2024-03-02T00:57:24;34.05;;;17.02;;
80295;SDS011;74188;42.148;24.762;2024-03-02T00:59:51;37.67;;;18.45;;
80295;SDS011;74188;42.148;24.762;2024-03-02T01:02:17;34.55;;;17.85;;
80295;SDS011;74188;42.148;24.762;2024-03-02T01:04:45;38.55;;;18.65;;
80295;SDS011;74188;42.148;24.762;2024-03-02T01:07:10;37.95;;;18.65;;
80295;SDS011;74188;42.148;24.762;2024-03-02T01:09:36;37.97;;;18.77;;
80295;SDS011;74188;42.148;24.762;2024-03-02T01:12:02;40.97;;;18.73;;
80295;SDS011;74188;42.148;24.762;2024-03-02T01:14:28;38.97;;;19.15;;
80295;SDS011;74188;42.148;24.762;2024-03-02T01:16:53;42.05;;;19.30;;
80295;SDS011;74188;42.148;24.762;2024-03-02T01:19:19;42.15;;;19.50;;
80295;SDS011;74188;42.148;24.762;2024-03-02T01:21:46;44.00;;;20.00;;
80295;SDS011;74188;42.148;24.762;2024-03-02T01:24:11;42.50;;;19.70;;
80295;SDS011;74188;42.148;24.762;2024-03-02T01:26:38;45.90;;;20.15;;
80295;SDS011;74188;42.148;24.762;2024-03-02T01:29:03;49.33;;;21.35;;
80295;SDS011;74188;42.148;24.762;2024-03-02T01:31:29;46.38;;;20.88;;
80295;SDS011;74188;42.148;24.762;2024-03-02T01:33:55;49.45;;;20.33;;
80295;SDS011;74188;42.148;24.762;2024-03-02T01:36:21;46.65;;;20.25;;
80295;SDS011;74188;42.148;24.762;2024-03-02T01:38:46;50.63;;;21.63;;
80295;SDS011;74188;42.148;24.762;2024-03-02T01:41:12;46.72;;;20.40;;
80295;SDS011;74188;42.148;24.762;2024-03-02T01:43:38;55.75;;;22.17;;
80295;SDS011;74188;42.148;24.762;2024-03-02T01:46:04;50.58;;;19.98;;
80295;SDS011;74188;42.148;24.762;2024-03-02T01:48:29;52.13;;;22.75;;
80295;SDS011;74188;42.148;24.762;2024-03-02T01:50:55;50.83;;;21.77;;
80295;SDS011;74188;42.148;24.762;2024-03-02T01:53:21;49.92;;;22.50;;
80295;SDS011;74188;42.148;24.762;2024-03-02T01:55:47;47.00;;;19.92;;
80295;SDS011;74188;42.148;24.762;2024-03-02T01:58:12;40.75;;;19.95;;
80295;SDS011;74188;42.148;24.762;2024-03-02T02:00:38;41.67;;;19.73;;
80295;SDS011;74188;42.148;24.762;2024-03-02T02:03:04;46.95;;;19.70;;
80295;SDS011;74188;42.148;24.762;2024-03-02T02:05:29;51.28;;;19.77;;
80295;SDS011;74188;42.148;24.762;2024-03-02T02:07:56;47.28;;;19.90;;
80295;SDS011;74188;42.148;24.762;2024-03-02T02:10:23;43.30;;;19.63;;
80295;SDS011;74188;42.148;24.762;2024-03-02T02:12:49;41.50;;;18.40;;
80295;SDS011;74188;42.148;24.762;2024-03-02T02:15:21;39.58;;;17.98;;
80295;SDS011;74188;42.148;24.762;2024-03-02T02:17:48;37.45;;;17.98;;
80295;SDS011;74188;42.148;24.762;2024-03-02T02:20:14;32.78;;;16.88;;
80295;SDS011;74188;42.148;24.762;2024-03-02T02:22:39;33.47;;;16.52;;
80295;SDS011;74188;42.148;24.762;2024-03-02T02:25:05;37.22;;;17.67;;
80295;SDS011;74188;42.148;24.762;2024-03-02T02:27:31;39.00;;;18.13;;
80295;SDS011;74188;42.148;24.762;2024-03-02T02:29:56;35.08;;;16.13;;
80295;SDS011;74188;42.148;24.762;2024-03-02T02:32:22;33.33;;;16.88;;
80295;SDS011;74188;42.148;24.762;2024-03-02T02:34:52;36.38;;;17.27;;
80295;SDS011;74188;42.148;24.762;2024-03-02T02:37:17;34.88;;;16.92;;
80295;SDS011;74188;42.148;24.762;2024-03-02T02:39:43;33.30;;;17.10;;
80295;SDS011;74188;42.148;24.762;2024-03-02T02:42:11;38.38;;;17.10;;
80295;SDS011;74188;42.148;24.762;2024-03-02T02:44:37;36.47;;;18.45;;
80295;SDS011;74188;42.148;24.762;2024-03-02T02:47:02;37.00;;;17.98;;
80295;SDS011;74188;42.148;24.762;2024-03-02T02:49:28;31.85;;;16.65;;
80295;SDS011;74188;42.148;24.762;2024-03-02T02:51:54;34.67;;;17.20;;
80295;SDS011;74188;42.148;24.762;2024-03-02T02:54:20;33.08;;;17.67;;
80295;SDS011;74188;42.148;24.762;2024-03-02T02:56:45;35.85;;;17.08;;
80295;SDS011;74188;42.148;24.762;2024-03-02T02:59:11;32.75;;;17.13;;
80295;SDS011;74188;42.148;24.762;2024-03-02T03:01:37;37.17;;;17.75;;
80295;SDS011;74188;42.148;24.762;2024-03-02T03:04:02;35.55;;;17.58;;
80295;SDS011;74188;42.148;24.762;2024-03-02T03:06:28;32.00;;;16.83;;
80295;SDS011;74188;42.148;24.762;2024-03-02T03:08:54;34.03;;;18.08;;
80295;SDS011;74188;42.148;24.762;2024-03-02T03:11:19;32.38;;;17.30;;
80295;SDS011;74188;42.148;24.762;2024-03-02T03:13:46;31.92;;;17.00;;
80295;SDS011;74188;42.148;24.762;2024-03-02T03:16:11;31.13;;;17.52;;
80295;SDS011;74188;42.148;24.762;2024-03-02T03:18:37;34.58;;;17.88;;
80295;SDS011;74188;42.148;24.762;2024-03-02T03:21:03;32.95;;;17.00;;
80295;SDS011;74188;42.148;24.762;2024-03-02T03:23:33;33.30;;;16.73;;
80295;SDS011;74188;42.148;24.762;2024-03-02T03:25:59;31.90;;;17.10;;
80295;SDS011;74188;42.148;24.762;2024-03-02T03:28:24;35.65;;;17.52;;
80295;SDS011;74188;42.148;24.762;2024-03-02T03:30:50;33.85;;;18.05;;
80295;SDS011;74188;42.148;24.762;2024-03-02T03:33:15;32.83;;;16.88;;
80295;SDS011;74188;42.148;24.762;2024-03-02T03:35:41;34.33;;;17.70;;
80295;SDS011;74188;42.148;24.762;2024-03-02T03:38:07;35.45;;;17.33;;
80295;SDS011;74188;42.148;24.762;2024-03-02T03:40:32;33.83;;;17.30;;
80295;SDS011;74188;42.148;24.762;2024-03-02T03:42:58;30.77;;;16.52;;
80295;SDS011;74188;42.148;24.762;2024-03-02T03:45:24;33.42;;;16.67;;
80295;SDS011;74188;42.148;24.762;2024-03-02T03:47:51;33.63;;;17.08;;
80295;SDS011;74188;42.148;24.762;2024-03-02T03:50:18;31.92;;;17.42;;
80295;SDS011;74188;42.148;24.762;2024-03-02T03:52:44;34.28;;;16.92;;
80295;SDS011;74188;42.148;24.762;2024-03-02T03:55:10;34.03;;;16.83;;
80295;SDS011;74188;42.148;24.762;2024-03-02T03:57:36;34.17;;;17.40;;
80295;SDS011;74188;42.148;24.762;2024-03-02T04:00:02;29.23;;;16.60;;
80295;SDS011;74188;42.148;24.762;2024-03-02T04:02:29;31.38;;;16.33;;
80295;SDS011;74188;42.148;24.762;2024-03-02T04:04:54;35.42;;;17.48;;
80295;SDS011;74188;42.148;24.762;2024-03-02T04:07:20;36.25;;;17.73;;
80295;SDS011;74188;42.148;24.762;2024-03-02T04:09:46;35.55;;;17.08;;
80295;SDS011;74188;42.148;24.762;2024-03-02T04:12:12;35.47;;;17.63;;
80295;SDS011;74188;42.148;24.762;2024-03-02T04:14:38;43.08;;;18.48;;
80295;SDS011;74188;42.148;24.762;2024-03-02T04:17:04;33.35;;;18.67;;
80295;SDS011;74188;42.148;24.762;2024-03-02T04:19:30;40.35;;;19.92;;
80295;SDS011;74188;42.148;24.762;2024-03-02T04:21:55;38.25;;;19.38;;
80295;SDS011;74188;42.148;24.762;2024-03-02T04:24:21;36.25;;;19.00;;
80295;SDS011;74188;42.148;24.762;2024-03-02T04:26:47;37.03;;;18.33;;
80295;SDS011;74188;42.148;24.762;2024-03-02T04:29:12;36.85;;;18.35;;
80295;SDS011;74188;42.148;24.762;2024-03-02T04:31:38;33.83;;;17.73;;
80295;SDS011;74188;42.148;24.762;2024-03-02T04:34:04;36.75;;;18.05;;
80295;SDS011;74188;42.148;24.762;2024-03-02T04:36:29;33.00;;;15.95;;
80295;SDS011;74188;42.148;24.762;2024-03-02T04:38:55;35.67;;;17.75;;
80295;SDS011;74188;42.148;24.762;2024-03-02T04:41:20;35.60;;;17.15;;
80295;SDS011;74188;42.148;24.762;2024-03-02T04:43:46;37.05;;;16.80;;
80295;SDS011;74188;42.148;24.762;2024-03-02T04:46:12;34.75;;;17.20;;
80295;SDS011;74188;42.148;24.762;2024-03-02T04:48:37;36.55;;;17.60;;
80295;SDS011;74188;42.148;24.762;2024-03-02T04:51:03;35.67;;;17.30;;
80295;SDS011;74188;42.148;24.762;2024-03-02T04:53:29;40.58;;;16.48;;
80295;SDS011;74188;42.148;24.762;2024-03-02T04:55:54;34.03;;;16.85;;
80295;SDS011;74188;42.148;24.762;2024-03-02T04:58:55;40.53;;;16.45;;
80295;SDS011;74188;42.148;24.762;2024-03-02T05:01:21;37.80;;;17.38;;
80295;SDS011;74188;42.148;24.762;2024-03-02T05:03:47;34.72;;;17.23;;
80295;SDS011;74188;42.148;24.762;2024-03-02T05:06:12;37.67;;;17.27;;
80295;SDS011;74188;42.148;24.762;2024-03-02T05:08:38;36.63;;;16.80;;
80295;SDS011;74188;42.148;24.762;2024-03-02T05:11:04;37.75;;;16.80;;
80295;SDS011;74188;42.148;24.762;2024-03-02T05:13:48;35.17;;;15.93;;
80295;SDS011;74188;42.148;24.762;2024-03-02T05:16:14;34.08;;;16.27;;
80295;SDS011;74188;42.148;24.762;2024-03-02T05:18:39;32.17;;;15.90;;
80295;SDS011;74188;42.148;24.762;2024-03-02T05:21:05;33.33;;;16.02;;
80295;SDS011;74188;42.148;24.762;2024-03-02T05:23:30;32.92;;;15.50;;
80295;SDS011;74188;42.148;24.762;2024-03-02T05:25:56;32.35;;;15.07;;
80295;SDS011;74188;42.148;24.762;2024-03-02T05:28:22;32.05;;;15.55;;
80295;SDS011;74188;42.148;24.762;2024-03-02T05:30:47;32.85;;;15.00;;
80295;SDS011;74188;42.148;24.762;2024-03-02T05:33:14;29.77;;;15.10;;
80295;SDS011;74188;42.148;24.762;2024-03-02T05:35:40;35.03;;;15.95;;
80295;SDS011;74188;42.148;24.762;2024-03-02T05:38:05;29.50;;;15.75;;
80295;SDS011;74188;42.148;24.762;2024-03-02T05:40:31;32.65;;;15.88;;
80295;SDS011;74188;42.148;24.762;2024-03-02T05:42:57;34.45;;;15.93;;
80295;SDS011;74188;42.148;24.762;2024-03-02T05:45:22;33.33;;;15.65;;
80295;SDS011;74188;42.148;24.762;2024-03-02T05:47:48;28.48;;;14.88;;
80295;SDS011;74188;42.148;24.762;2024-03-02T05:50:14;31.85;;;16.30;;
80295;SDS011;74188;42.148;24.762;2024-03-02T05:52:39;32.53;;;15.20;;
80295;SDS011;74188;42.148;24.762;2024-03-02T05:55:05;31.23;;;15.60;;
80295;SDS011;74188;42.148;24.762;2024-03-02T05:57:31;28.65;;;15.30;;
80295;SDS011;74188;42.148;24.762;2024-03-02T06:00:10;27.85;;;14.70;;
80295;SDS011;74188;42.148;24.762;2024-03-02T06:02:39;27.85;;;14.55;;
80295;SDS011;74188;42.148;24.762;2024-03-02T06:05:08;30.30;;;14.65;;
80295;SDS011;74188;42.148;24.762;2024-03-02T06:07:33;26.75;;;14.52;;
80295;SDS011;74188;42.148;24.762;2024-03-02T06:09:59;26.38;;;13.35;;
80295;SDS011;74188;42.148;24.762;2024-03-02T06:12:25;25.70;;;13.60;;
80295;SDS011;74188;42.148;24.762;2024-03-02T06:14:51;27.38;;;14.25;;
80295;SDS011;74188;42.148;24.762;2024-03-02T06:17:16;26.58;;;14.43;;
80295;SDS011;74188;42.148;24.762;2024-03-02T06:19:42;26.55;;;13.93;;
80295;SDS011;74188;42.148;24.762;2024-03-02T06:22:07;24.33;;;13.35;;
80295;SDS011;74188;42.148;24.762;2024-03-02T06:24:35;26.02;;;13.50;;
80295;SDS011;74188;42.148;24.762;2024-03-02T06:27:02;28.63;;;13.70;;
80295;SDS011;74188;42.148;24.762;2024-03-02T06:29:29;26.85;;;13.90;;
80295;SDS011;74188;42.148;24.762;2024-03-02T06:31:57;25.27;;;13.82;;
80295;SDS011;74188;42.148;24.762;2024-03-02T06:34:22;24.92;;;14.75;;
80295;SDS011;74188;42.148;24.762;2024-03-02T06:36:48;26.33;;;14.40;;
80295;SDS011;74188;42.148;24.762;2024-03-02T06:39:14;24.90;;;13.30;;
80295;SDS011;74188;42.148;24.762;2024-03-02T06:41:39;22.65;;;12.48;;
80295;SDS011;74188;42.148;24.762;2024-03-02T06:44:05;24.00;;;13.07;;
80295;SDS011;74188;42.148;24.762;2024-03-02T06:46:31;21.90;;;12.20;;
80295;SDS011;74188;42.148;24.762;2024-03-02T06:48:57;23.55;;;13.02;;
80295;SDS011;74188;42.148;24.762;2024-03-02T06:51:23;23.65;;;12.98;;
80295;SDS011;74188;42.148;24.762;2024-03-02T06:53:48;21.92;;;11.65;;
80295;SDS011;74188;42.148;24.762;2024-03-02T06:56:14;22.25;;;12.57;;
80295;SDS011;74188;42.148;24.762;2024-03-02T06:58:39;20.42;;;11.20;;
80295;SDS011;74188;42.148;24.762;2024-03-02T07:01:05;21.00;;;11.13;;
80295;SDS011;74188;42.148;24.762;2024-03-02T07:03:31;18.83;;;10.88;;
80295;SDS011;74188;42.148;24.762;2024-03-02T07:05:57;21.05;;;11.45;;
80295;SDS011;74188;42.148;24.762;2024-03-02T07:08:23;19.55;;;11.00;;
80295;SDS011;74188;42.148;24.762;2024-03-02T07:10:49;20.48;;;11.20;;
80295;SDS011;74188;42.148;24.762;2024-03-02T07:13:14;20.55;;;11.70;;
80295;SDS011;74188;42.148;24.762;2024-03-02T07:15:40;20.27;;;11.73;;
80295;SDS011;74188;42.148;24.762;2024-03-02T07:18:32;21.48;;;11.75;;
80295;SDS011;74188;42.148;24.762;2024-03-02T07:21:06;21.55;;;11.20;;
80295;SDS011;74188;42.148;24.762;2024-03-02T07:26:00;20.13;;;10.98;;
80295;SDS011;74188;42.148;24.762;2024-03-02T07:28:26;20.42;;;11.10;;
80295;SDS011;74188;42.148;24.762;2024-03-02T07:31:02;20.77;;;12.15;;
80295;SDS011;74188;42.148;24.762;2024-03-02T07:33:29;22.38;;;12.32;;
80295;SDS011;74188;42.148;24.762;2024-03-02T07:35:55;22.63;;;11.45;;
80295;SDS011;74188;42.148;24.762;2024-03-02T07:38:22;21.20;;;11.55;;
80295;SDS011;74188;42.148;24.762;2024-03-02T07:40:48;21.35;;;11.07;;
80295;SDS011;74188;42.148;24.762;2024-03-02T07:43:17;20.80;;;12.05;;
80295;SDS011;74188;42.148;24.762;2024-03-02T07:45:44;21.67;;;12.20;;
80295;SDS011;74188;42.148;24.762;2024-03-02T07:48:10;20.83;;;12.07;;
80295;SDS011;74188;42.148;24.762;2024-03-02T07:50:36;20.50;;;11.30;;
80295;SDS011;74188;42.148;24.762;2024-03-02T07:53:02;22.55;;;11.73;;
80295;SDS011;74188;42.148;24.762;2024-03-02T07:55:29;20.50;;;12.15;;
80295;SDS011;74188;42.148;24.762;2024-03-02T07:57:55;19.98;;;12.20;;
80295;SDS011;74188;42.148;24.762;2024-03-02T08:00:25;22.67;;;12.48;;
80295;SDS011;74188;42.148;24.762;2024-03-02T08:02:52;21.83;;;12.20;;
80295;SDS011;74188;42.148;24.762;2024-03-02T08:05:18;23.35;;;12.32;;
80295;SDS011;74188;42.148;24.762;2024-03-02T08:07:44;22.35;;;12.65;;
80295;SDS011;74188;42.148;24.762;2024-03-02T08:10:10;18.38;;;11.13;;
80295;SDS011;74188;42.148;24.762;2024-03-02T08:12:36;22.27;;;11.48;;
80295;SDS011;74188;42.148;24.762;2024-03-02T08:15:02;20.05;;;11.70;;
80295;SDS011;74188;42.148;24.762;2024-03-02T08:17:29;21.40;;;12.43;;
80295;SDS011;74188;42.148;24.762;2024-03-02T08:19:55;20.35;;;12.00;;
80295;SDS011;74188;42.148;24.762;2024-03-02T08:22:21;20.35;;;11.68;;
80295;SDS011;74188;42.148;24.762;2024-03-02T08:24:47;20.92;;;13.02;;
80295;SDS011;74188;42.148;24.762;2024-03-02T08:27:13;26.23;;;15.95;;
80295;SDS011;74188;42.148;24.762;2024-03-02T08:29:40;24.92;;;14.93;;
80295;SDS011;74188;42.148;24.762;2024-03-02T08:32:06;24.20;;;14.27;;
80295;SDS011;74188;42.148;24.762;2024-03-02T08:34:32;21.33;;;13.02;;
80295;SDS011;74188;42.148;24.762;2024-03-02T08:37:00;19.27;;;12.43;;
80295;SDS011;74188;42.148;24.762;2024-03-02T08:39:27;22.02;;;12.73;;
80295;SDS011;74188;42.148;24.762;2024-03-02T08:41:53;22.42;;;12.98;;
80295;SDS011;74188;42.148;24.762;2024-03-02T08:44:19;19.55;;;12.10;;
80295;SDS011;74188;42.148;24.762;2024-03-02T08:46:45;21.08;;;12.05;;
80295;SDS011;74188;42.148;24.762;2024-03-02T08:49:11;22.15;;;13.05;;
80295;SDS011;74188;42.148;24.762;2024-03-02T08:51:37;20.77;;;13.15;;
80295;SDS011;74188;42.148;24.762;2024-03-02T08:54:03;22.40;;;13.38;;
80295;SDS011;74188;42.148;24.762;2024-03-02T08:56:30;23.25;;;12.30;;
80295;SDS011;74188;42.148;24.762;2024-03-02T08:58:56;22.02;;;13.10;;
80295;SDS011;74188;42.148;24.762;2024-03-02T09:01:21;23.55;;;13.18;;
80295;SDS011;74188;42.148;24.762;2024-03-02T09:03:47;24.70;;;12.55;;
80295;SDS011;74188;42.148;24.762;2024-03-02T09:06:14;27.50;;;13.50;;
80295;SDS011;74188;42.148;24.762;2024-03-02T09:08:44;26.65;;;14.10;;
80295;SDS011;74188;42.148;24.762;2024-03-02T09:11:10;23.88;;;12.25;;
80295;SDS011;74188;42.148;24.762;2024-03-02T09:13:37;26.08;;;13.98;;
80295;SDS011;74188;42.148;24.762;2024-03-02T09:16:03;31.80;;;17.08;;
80295;SDS011;74188;42.148;24.762;2024-03-02T09:18:30;30.77;;;15.70;;
80295;SDS011;74188;42.148;24.762;2024-03-02T09:20:56;26.98;;;14.20;;
80295;SDS011;74188;42.148;24.762;2024-03-02T09:23:21;27.67;;;13.57;;
80295;SDS011;74188;42.148;24.762;2024-03-02T09:25:47;27.42;;;14.50;;
80295;SDS011;74188;42.148;24.762;2024-03-02T09:28:15;26.98;;;13.80;;
80295;SDS011;74188;42.148;24.762;2024-03-02T09:30:40;26.80;;;13.90;;
80295;SDS011;74188;42.148;24.762;2024-03-02T09:33:06;26.52;;;14.63;;
80295;SDS011;74188;42.148;24.762;2024-03-02T09:35:32;31.38;;;14.90;;
80295;SDS011;74188;42.148;24.762;2024-03-02T09:37:57;27.30;;;14.50;;
80295;SDS011;74188;42.148;24.762;2024-03-02T09:40:23;27.30;;;14.02;;
80295;SDS011;74188;42.148;24.762;2024-03-02T09:42:49;26.42;;;14.35;;
80295;SDS011;74188;42.148;24.762;2024-03-02T09:45:24;32.33;;;15.50;;
80295;SDS011;74188;42.148;24.762;2024-03-02T09:47:50;31.95;;;15.88;;
80295;SDS011;74188;42.148;24.762;2024-03-02T09:50:16;28.63;;;15.10;;
80295;SDS011;74188;42.148;24.762;2024-03-02T09:52:42;27.33;;;14.38;;
80295;SDS011;74188;42.148;24.762;2024-03-02T09:55:08;27.55;;;14.18;;
80295;SDS011;74188;42.148;24.762;2024-03-02T09:57:34;29.00;;;14.45;;
80295;SDS011;74188;42.148;24.762;2024-03-02T10:00:00;31.27;;;15.65;;
80295;SDS011;74188;42.148;24.762;2024-03-02T10:02:26;25.98;;;14.05;;
80295;SDS011;74188;42.148;24.762;2024-03-02T10:04:52;26.98;;;14.20;;
80295;SDS011;74188;42.148;24.762;2024-03-02T10:07:18;28.38;;;14.60;;
80295;SDS011;74188;42.148;24.762;2024-03-02T10:09:48;26.70;;;14.05;;
80295;SDS011;74188;42.148;24.762;2024-03-02T10:12:17;27.90;;;14.30;;
80295;SDS011;74188;42.148;24.762;2024-03-02T10:14:43;26.52;;;13.90;;
80295;SDS011;74188;42.148;24.762;2024-03-02T10:17:10;24.95;;;13.45;;
80295;SDS011;74188;42.148;24.762;2024-03-02T10:19:38;26.65;;;13.55;;
80295;SDS011;74188;42.148;24.762;2024-03-02T10:22:05;25.25;;;13.02;;
80295;SDS011;74188;42.148;24.762;2024-03-02T10:24:38;24.57;;;12.87;;
80295;SDS011;74188;42.148;24.762;2024-03-02T10:27:10;23.33;;;14.10;;
80295;SDS011;74188;42.148;24.762;2024-03-02T10:29:45;28.73;;;14.18;;
80295;SDS011;74188;42.148;24.762;2024-03-02T10:32:12;24.30;;;13.60;;
80295;SDS011;74188;42.148;24.762;2024-03-02T10:34:41;27.17;;;14.48;;
80295;SDS011;74188;42.148;24.762;2024-03-02T10:37:08;27.50;;;14.65;;
80295;SDS011;74188;42.148;24.762;2024-03-02T10:39:35;23.52;;;13.85;;
80295;SDS011;74188;42.148;24.762;2024-03-02T10:42:01;24.92;;;13.63;;
80295;SDS011;74188;42.148;24.762;2024-03-02T10:44:28;26.08;;;14.48;;
80295;SDS011;74188;42.148;24.762;2024-03-02T10:46:55;23.50;;;14.38;;
80295;SDS011;74188;42.148;24.762;2024-03-02T10:49:22;24.92;;;14.63;;
80295;SDS011;74188;42.148;24.762;2024-03-02T10:51:51;26.23;;;13.93;;
80295;SDS011;74188;42.148;24.762;2024-03-02T10:54:16;25.88;;;15.15;;
80295;SDS011;74188;42.148;24.762;2024-03-02T10:56:44;25.92;;;14.88;;
80295;SDS011;74188;42.148;24.762;2024-03-02T11:01:36;26.77;;;15.10;;
80295;SDS011;74188;42.148;24.762;2024-03-02T11:04:04;25.88;;;14.48;;
80295;SDS011;74188;42.148;24.762;2024-03-02T11:06:34;27.90;;;15.57;;
80295;SDS011;74188;42.148;24.762;2024-03-02T11:09:05;31.75;;;15.55;;
80295;SDS011;74188;42.148;24.762;2024-03-02T11:11:36;30.80;;;16.50;;
80295;SDS011;74188;42.148;24.762;2024-03-02T11:14:07;27.70;;;15.38;;
80295;SDS011;74188;42.148;24.762;2024-03-02T11:16:37;28.13;;;15.70;;
80295;SDS011;74188;42.148;24.762;2024-03-02T11:19:08;30.27;;;15.90;;
80295;SDS011;74188;42.148;24.762;2024-03-02T11:21:35;28.40;;;16.38;;
80295;SDS011;74188;42.148;24.762;2024-03-02T11:26:46;30.15;;;16.42;;
80295;SDS011;74188;42.148;24.762;2024-03-02T11:32:04;26.92;;;16.00;;
80295;SDS011;74188;42.148;24.762;2024-03-02T11:34:31;34.00;;;17.63;;
80295;SDS011;74188;42.148;24.762;2024-03-02T11:37:01;32.63;;;17.52;;
80295;SDS011;74188;42.148;24.762;2024-03-02T11:39:29;33.60;;;17.38;;
80295;SDS011;74188;42.148;24.762;2024-03-02T11:41:58;31.23;;;16.70;;
80295;SDS011;74188;42.148;24.762;2024-03-02T11:44:28;33.75;;;18.55;;
80295;SDS011;74188;42.148;24.762;2024-03-02T11:47:00;30.33;;;17.98;;
80295;SDS011;74188;42.148;24.762;2024-03-02T11:49:46;33.03;;;18.20;;
80295;SDS011;74188;42.148;24.762;2024-03-02T11:52:16;45.47;;;25.27;;
80295;SDS011;74188;42.148;24.762;2024-03-02T11:54:46;35.78;;;20.00;;
80295;SDS011;74188;42.148;24.762;2024-03-02T11:57:23;36.03;;;21.60;;
80295;SDS011;74188;42.148;24.762;2024-03-02T11:59:48;38.63;;;23.10;;
80295;SDS011;74188;42.148;24.762;2024-03-02T12:02:15;31.38;;;19.17;;
80295;SDS011;74188;42.148;24.762;2024-03-02T12:04:43;24.27;;;17.10;;
80295;SDS011;74188;42.148;24.762;2024-03-02T12:07:10;25.40;;;17.17;;
80295;SDS011;74188;42.148;24.762;2024-03-02T12:09:37;27.75;;;18.33;;
80295;SDS011;74188;42.148;24.762;2024-03-02T12:12:09;21.95;;;15.18;;
80295;SDS011;74188;42.148;24.762;2024-03-02T12:14:36;21.45;;;14.43;;
80295;SDS011;74188;42.148;24.762;2024-03-02T12:17:03;20.43;;;14.07;;
80295;SDS011;74188;42.148;24.762;2024-03-02T12:19:30;19.95;;;14.27;;
80295;SDS011;74188;42.148;24.762;2024-03-02T12:21:57;21.45;;;15.27;;
80295;SDS011;74188;42.148;24.762;2024-03-02T12:24:23;22.15;;;14.85;;
80295;SDS011;74188;42.148;24.762;2024-03-02T12:26:52;20.67;;;13.65;;
80295;SDS011;74188;42.148;24.762;2024-03-02T12:29:19;21.52;;;15.02;;
80295;SDS011;74188;42.148;24.762;2024-03-02T12:31:49;23.40;;;15.55;;
80295;SDS011;74188;42.148;24.762;2024-03-02T12:34:15;23.27;;;15.40;;
80295;SDS011;74188;42.148;24.762;2024-03-02T12:36:42;25.05;;;16.13;;
80295;SDS011;74188;42.148;24.762;2024-03-02T12:39:08;24.92;;;15.90;;
80295;SDS011;74188;42.148;24.762;2024-03-02T12:41:40;25.92;;;16.95;;
80295;SDS011;74188;42.148;24.762;2024-03-02T12:44:07;26.15;;;16.95;;
80295;SDS011;74188;42.148;24.762;2024-03-02T12:46:33;22.77;;;15.73;;
80295;SDS011;74188;42.148;24.762;2024-03-02T12:49:10;24.83;;;16.33;;
80295;SDS011;74188;42.148;24.762;2024-03-02T12:51:37;24.55;;;16.00;;
80295;SDS011;74188;42.148;24.762;2024-03-02T12:54:05;24.42;;;16.33;;
80295;SDS011;74188;42.148;24.762;2024-03-02T12:56:32;26.67;;;16.75;;
80295;SDS011;74188;42.148;24.762;2024-03-02T12:58:58;27.27;;;18.50;;
80295;SDS011;74188;42.148;24.762;2024-03-02T13:01:24;25.65;;;17.58;;
80295;SDS011;74188;42.148;24.762;2024-03-02T13:03:50;27.45;;;17.70;;
80295;SDS011;74188;42.148;24.762;2024-03-02T13:06:18;23.27;;;16.20;;
80295;SDS011;74188;42.148;24.762;2024-03-02T13:08:44;25.15;;;16.48;;
80295;SDS011;74188;42.148;24.762;2024-03-02T13:11:11;25.98;;;17.55;;
80295;SDS011;74188;42.148;24.762;2024-03-02T13:13:38;25.60;;;17.83;;
80295;SDS011;74188;42.148;24.762;2024-03-02T13:16:08;28.90;;;19.02;;
80295;SDS011;74188;42.148;24.762;2024-03-02T13:18:35;31.10;;;19.17;;
80295;SDS011;74188;42.148;24.762;2024-03-02T13:21:01;27.30;;;17.88;;
80295;SDS011;74188;42.148;24.762;2024-03-02T13:23:27;27.38;;;18.08;;
80295;SDS011;74188;42.148;24.762;2024-03-02T13:25:55;26.95;;;18.00;;
80295;SDS011;74188;42.148;24.762;2024-03-02T13:28:24;28.20;;;19.45;;
80295;SDS011;74188;42.148;24.762;2024-03-02T13:30:50;30.67;;;19.58;;
80295;SDS011;74188;42.148;24.762;2024-03-02T13:33:16;29.60;;;19.02;;
80295;SDS011;74188;42.148;24.762;2024-03-02T13:35:47;29.70;;;18.48;;
80295;SDS011;74188;42.148;24.762;2024-03-02T13:38:19;29.20;;;19.63;;
80295;SDS011;74188;42.148;24.762;2024-03-02T13:40:45;30.40;;;21.10;;
80295;SDS011;74188;42.148;24.762;2024-03-02T13:43:12;28.70;;;20.67;;
80295;SDS011;74188;42.148;24.762;2024-03-02T13:45:39;28.02;;;19.65;;
80295;SDS011;74188;42.148;24.762;2024-03-02T13:48:05;28.38;;;19.85;;
80295;SDS011;74188;42.148;24.762;2024-03-02T13:50:31;30.02;;;19.85;;
80295;SDS011;74188;42.148;24.762;2024-03-02T13:52:56;28.38;;;19.15;;
80295;SDS011;74188;42.148;24.762;2024-03-02T13:55:22;29.15;;;18.95;;
80295;SDS011;74188;42.148;24.762;2024-03-02T13:57:48;26.27;;;18.15;;
80295;SDS011;74188;42.148;24.762;2024-03-02T14:00:15;27.17;;;18.58;;
80295;SDS011;74188;42.148;24.762;2024-03-02T14:02:42;29.42;;;18.70;;
80295;SDS011;74188;42.148;24.762;2024-03-02T14:05:08;24.48;;;16.73;;
80295;SDS011;74188;42.148;24.762;2024-03-02T14:10:06;23.55;;;15.77;;
80295;SDS011;74188;42.148;24.762;2024-03-02T14:12:31;23.02;;;14.88;;
80295;SDS011;74188;42.148;24.762;2024-03-02T14:14:57;20.23;;;14.82;;
80295;SDS011;74188;42.148;24.762;2024-03-02T14:17:24;18.50;;;13.48;;
80295;SDS011;74188;42.148;24.762;2024-03-02T14:19:50;23.55;;;15.48;;
80295;SDS011;74188;42.148;24.762;2024-03-02T14:22:17;24.30;;;16.30;;